Time;durP1;ratioP1;P1;durP2;ratioP2;P2;SDS_P1;SDS_P2;PMS_P1;PMS_P2;Temp;Humidity;BMP_temperature;BMP_pressure;BME280_temperature;BME280_humidity;BME280_pressure;Samples;Min_cycle;Max_cycle;Signal;HPM_P1;HPM_P2
2022/07/17 00:00:53;;;;;;;1999.90;999.90;;;14.80;99.90;;;;;;5074317;28;20203;-60
2022/07/17 00:03:20;;;;;;;1999.90;999.90;;;14.80;99.90;;;;;;5074325;28;20196;-59
2022/07/17 00:05:48;;;;;;;1999.90;999.90;;;14.70;99.90;;;;;;5074506;28;20236;-59
2022/07/17 00:08:16;;;;;;;1999.90;999.90;;;14.60;99.90;;;;;;5074232;28;20198;-59
2022/07/17 00:10:43;;;;;;;1999.90;999.90;;;14.60;99.90;;;;;;5073967;28;20206;-60
2022/07/17 00:13:11;;;;;;;1999.90;999.90;;;14.50;99.90;;;;;;5074189;28;20203;-60
2022/07/17 00:15:38;;;;;;;1999.90;999.90;;;14.40;99.90;;;;;;5073832;28;20688;-60
2022/07/17 00:18:06;;;;;;;1999.90;999.90;;;14.30;99.90;;;;;;5074045;28;20206;-60
2022/07/17 00:20:33;;;;;;;1999.90;999.90;;;14.30;99.90;;;;;;5074014;28;20209;-59
2022/07/17 00:23:02;;;;;;;1999.90;999.90;;;14.20;99.90;;;;;;5073616;28;20672;-59
2022/07/17 00:25:32;;;;;;;1999.90;999.90;;;14.30;99.90;;;;;;5073787;28;20190;-60
2022/07/17 00:27:59;;;;;;;1999.90;999.90;;;14.40;99.90;;;;;;5073894;28;20204;-59
2022/07/17 00:30:26;;;;;;;1999.90;999.90;;;14.40;99.90;;;;;;5073883;28;20563;-60
2022/07/17 00:32:53;;;;;;;1999.90;999.90;;;14.50;99.90;;;;;;5073728;28;20194;-59
2022/07/17 00:35:21;;;;;;;1999.90;999.90;;;14.40;99.90;;;;;;5073418;28;20222;-59
2022/07/17 00:37:49;;;;;;;1999.90;999.90;;;14.40;99.90;;;;;;5073474;28;20556;-60
2022/07/17 00:40:21;;;;;;;1999.90;999.90;;;14.40;99.90;;;;;;5073769;28;20234;-60
2022/07/17 00:42:48;;;;;;;1999.90;999.90;;;14.40;99.90;;;;;;5073697;28;20183;-60
2022/07/17 00:45:16;;;;;;;1999.90;999.90;;;14.30;99.90;;;;;;5073649;28;20183;-60
2022/07/17 00:47:55;;;;;;;1999.90;999.90;;;14.30;99.90;;;;;;5073089;28;20206;-60
2022/07/17 00:50:23;;;;;;;1999.90;999.90;;;14.30;99.90;;;;;;5073474;28;20333;-60
2022/07/17 00:52:50;;;;;;;1999.90;999.90;;;14.20;99.90;;;;;;5073346;28;20199;-60
2022/07/17 00:55:19;;;;;;;1999.90;999.90;;;14.20;99.90;;;;;;5073135;28;20215;-60
2022/07/17 00:57:49;;;;;;;1999.90;999.90;;;14.10;99.90;;;;;;5073273;28;20198;-59
2022/07/17 01:00:17;;;;;;;1999.90;999.90;;;14.10;99.90;;;;;;5072948;28;20203;-60
2022/07/17 01:02:47;;;;;;;1999.90;999.90;;;14.00;99.90;;;;;;5072869;28;20197;-59
2022/07/17 01:05:15;;;;;;;1999.90;999.90;;;14.10;99.90;;;;;;5073173;28;20212;-59
2022/07/17 01:07:42;;;;;;;1999.90;999.90;;;14.10;99.90;;;;;;5072932;28;20201;-59
2022/07/17 01:10:10;;;;;;;1999.90;999.90;;;14.00;99.90;;;;;;5073140;28;20194;-59
2022/07/17 01:12:40;;;;;;;1999.90;999.90;;;14.00;99.90;;;;;;5072977;28;20199;-60
2022/07/17 01:15:08;;;;;;;1999.90;999.90;;;14.00;99.90;;;;;;5072968;28;20223;-59
2022/07/17 01:17:36;;;;;;;1999.90;999.90;;;14.00;99.90;;;;;;5072980;28;20194;-60
2022/07/17 01:20:04;;;;;;;1999.90;999.90;;;13.90;99.90;;;;;;5073066;28;20207;-59
2022/07/17 01:22:32;;;;;;;1999.90;999.90;;;13.90;99.90;;;;;;5072493;28;20671;-59
2022/07/17 01:24:59;;;;;;;1999.90;999.90;;;13.80;99.90;;;;;;5072718;28;20195;-59
2022/07/17 01:27:26;;;;;;;1999.90;999.90;;;13.70;99.90;;;;;;5072773;28;20207;-59
2022/07/17 01:29:57;;;;;;;1999.90;999.90;;;13.80;99.90;;;;;;5072448;28;20202;-59
2022/07/17 01:32:32;;;;;;;1999.90;999.90;;;13.80;99.90;;;;;;5072754;28;20179;-59
2022/07/17 01:34:59;;;;;;;1999.90;999.90;;;13.70;99.90;;;;;;5072291;28;20639;-59
2022/07/17 01:37:26;;;;;;;1999.90;999.90;;;13.70;99.90;;;;;;5072597;28;20201;-60
2022/07/17 01:39:55;;;;;;;1999.90;999.90;;;13.60;99.90;;;;;;5072583;28;20696;-60
2022/07/17 01:42:23;;;;;;;1999.90;999.90;;;13.70;99.90;;;;;;5072642;28;20194;-60
2022/07/17 01:44:51;;;;;;;1999.90;999.90;;;13.60;99.90;;;;;;5072689;28;20195;-59
2022/07/17 01:47:18;;;;;;;1999.90;999.90;;;13.60;99.90;;;;;;5072682;28;20195;-60
2022/07/17 01:49:47;;;;;;;1999.90;999.90;;;13.60;99.90;;;;;;5072625;28;20208;-60
2022/07/17 01:52:14;;;;;;;1999.90;999.90;;;13.60;99.90;;;;;;5072114;28;20197;-60
2022/07/17 01:54:42;;;;;;;1999.90;999.90;;;13.50;99.90;;;;;;5072114;28;20202;-60
2022/07/17 01:57:11;;;;;;;1999.90;999.90;;;13.40;99.90;;;;;;5072111;28;20706;-59
2022/07/17 01:59:39;;;;;;;1999.90;999.90;;;13.40;99.90;;;;;;5072101;28;20205;-59
2022/07/17 02:02:07;;;;;;;1999.90;999.90;;;13.30;99.90;;;;;;5072049;28;20204;-59
2022/07/17 02:04:35;;;;;;;1999.90;999.90;;;13.20;99.90;;;;;;5072364;28;20198;-59
2022/07/17 02:07:03;;;;;;;1999.90;999.90;;;13.10;99.90;;;;;;5072072;28;20668;-59
2022/07/17 02:09:31;;;;;;;1999.90;999.90;;;13.20;99.90;;;;;;5072378;28;20201;-59
2022/07/17 02:11:58;;;;;;;1999.90;999.90;;;13.20;99.90;;;;;;5072402;28;20205;-59
2022/07/17 02:14:27;;;;;;;1999.90;999.90;;;13.30;99.90;;;;;;5072017;28;20660;-59
2022/07/17 02:16:54;;;;;;;1999.90;999.90;;;13.30;99.90;;;;;;5072243;28;20241;-59
2022/07/17 02:19:21;;;;;;;1999.90;999.90;;;13.20;99.90;;;;;;5072245;28;20254;-59
2022/07/17 02:21:49;;;;;;;1999.90;999.90;;;13.20;99.90;;;;;;5072223;28;20201;-59
2022/07/17 02:24:16;;;;;;;1999.90;999.90;;;13.20;99.90;;;;;;5072260;28;20191;-59
2022/07/17 02:26:43;;;;;;;1999.90;999.90;;;13.30;99.90;;;;;;5071883;28;20557;-59
2022/07/17 02:29:10;;;;;;;1999.90;999.90;;;13.30;99.90;;;;;;5071945;28;20664;-59
2022/07/17 02:31:38;;;;;;;1999.90;999.90;;;13.30;99.90;;;;;;5072179;28;20194;-59
2022/07/17 02:34:06;;;;;;;1999.90;999.90;;;13.30;99.90;;;;;;5072102;28;20236;-59
2022/07/17 02:36:33;;;;;;;1999.90;999.90;;;13.30;99.90;;;;;;5072042;28;20282;-59
2022/07/17 02:39:01;;;;;;;1999.90;999.90;;;13.30;99.90;;;;;;5072140;28;20204;-59
2022/07/17 02:41:28;;;;;;;1999.90;999.90;;;13.30;99.90;;;;;;5072058;28;20248;-60
2022/07/17 02:43:55;;;;;;;1999.90;999.90;;;13.30;99.90;;;;;;5071794;28;20196;-59
2022/07/17 02:46:22;;;;;;;1999.90;999.90;;;13.30;99.90;;;;;;5071646;28;20663;-59
2022/07/17 02:48:51;;;;;;;1999.90;999.90;;;13.30;99.90;;;;;;5071574;28;20216;-59
2022/07/17 02:51:18;;;;;;;1999.90;999.90;;;13.10;99.90;;;;;;5071601;28;20566;-59
2022/07/17 02:53:45;;;;;;;1999.90;999.90;;;13.10;99.90;;;;;;5071889;28;20199;-60
2022/07/17 02:56:12;;;;;;;1999.90;999.90;;;13.00;99.90;;;;;;5071721;28;20227;-60
2022/07/17 02:58:39;;;;;;;1999.90;999.90;;;13.00;99.90;;;;;;5071843;28;20210;-59
2022/07/17 03:01:06;;;;;;;1999.90;999.90;;;12.90;99.90;;;;;;5071710;28;20197;-59
2022/07/17 03:03:33;;;;;;;1999.90;999.90;;;12.90;99.90;;;;;;5071606;28;20207;-58
2022/07/17 03:06:02;;;;;;;1999.90;999.90;;;12.80;99.90;;;;;;5071603;28;20707;-59
2022/07/17 03:08:29;;;;;;;1999.90;999.90;;;12.90;99.90;;;;;;5071907;28;20202;-59
2022/07/17 03:10:56;;;;;;;1999.90;999.90;;;12.80;99.90;;;;;;5071961;28;20201;-59
2022/07/17 03:13:23;;;;;;;1999.90;999.90;;;12.80;99.90;;;;;;5075053;28;20546;-59
2022/07/17 03:15:50;;;;;;;1999.90;999.90;;;12.70;99.90;;;;;;5074908;28;20215;-60
2022/07/17 03:18:17;;;;;;;1999.90;999.90;;;12.70;99.90;;;;;;5075209;28;20198;-59
2022/07/17 03:20:44;;;;;;;1999.90;999.90;;;12.70;99.90;;;;;;5074840;28;20210;-59
2022/07/17 03:23:13;;;;;;;1999.90;999.90;;;12.70;99.90;;;;;;5075254;28;20198;-59
2022/07/17 03:25:40;;;;;;;1999.90;999.90;;;12.50;99.90;;;;;;5074651;28;20665;-59
2022/07/17 03:28:07;;;;;;;1999.90;999.90;;;12.40;99.90;;;;;;5075007;28;20198;-59
2022/07/17 03:30:34;;;;;;;1999.90;999.90;;;12.30;99.90;;;;;;5075047;28;20216;-59
2022/07/17 03:33:01;;;;;;;1999.90;999.90;;;12.20;99.90;;;;;;5074983;28;20212;-59
2022/07/17 03:35:28;;;;;;;1999.90;999.90;;;12.20;99.90;;;;;;5074489;28;20236;-59
2022/07/17 03:37:55;;;;;;;1999.90;999.90;;;12.20;99.90;;;;;;5074640;28;20716;-59
2022/07/17 03:40:24;;;;;;;1999.90;999.90;;;12.30;99.90;;;;;;5074847;28;20196;-61
2022/07/17 03:42:51;;;;;;;1999.90;999.90;;;12.30;99.90;;;;;;5074810;28;20204;-59
2022/07/17 03:45:18;;;;;;;1999.90;999.90;;;12.30;99.90;;;;;;5074506;28;20200;-59
2022/07/17 03:47:45;;;;;;;1999.90;999.90;;;12.30;99.90;;;;;;5074371;28;20196;-59
2022/07/17 03:50:12;;;;;;;1999.90;999.90;;;12.30;99.90;;;;;;5074642;28;20201;-59
2022/07/17 03:52:39;;;;;;;1999.90;999.90;;;12.30;99.90;;;;;;5074514;28;20207;-59
2022/07/17 03:55:07;;;;;;;1999.90;999.90;;;12.30;99.90;;;;;;5074411;28;20212;-60
2022/07/17 03:57:36;;;;;;;1999.90;999.90;;;12.40;99.90;;;;;;5074356;28;20228;-59
2022/07/17 04:00:04;;;;;;;1999.90;999.90;;;12.50;99.90;;;;;;5074436;28;20193;-59
2022/07/17 04:02:31;;;;;;;1999.90;999.90;;;12.60;99.90;;;;;;5074047;28;20201;-59
2022/07/17 04:04:58;;;;;;;1999.90;999.90;;;12.50;99.90;;;;;;5074550;28;20189;-59
2022/07/17 04:07:28;;;;;;;1999.90;999.90;;;12.50;99.90;;;;;;5073976;28;20738;-61
2022/07/17 04:09:56;;;;;;;1999.90;999.90;;;12.50;99.90;;;;;;5074292;28;20207;-59
2022/07/17 04:12:24;;;;;;;1999.90;999.90;;;12.50;99.90;;;;;;5074156;28;20210;-59
2022/07/17 04:14:52;;;;;;;1999.90;999.90;;;12.50;99.90;;;;;;5073895;28;20270;-60
2022/07/17 04:17:19;;;;;;;1999.90;999.90;;;12.50;99.90;;;;;;5074213;28;20222;-59
2022/07/17 04:19:47;;;;;;;1999.90;999.90;;;12.60;99.90;;;;;;5074092;28;20198;-59
2022/07/17 04:22:14;;;;;;;1999.90;999.90;;;12.60;99.90;;;;;;5073560;28;20207;-59
2022/07/17 04:24:42;;;;;;;1999.90;999.90;;;12.70;99.90;;;;;;5073881;28;20204;-59
2022/07/17 04:27:09;;;;;;;1999.90;999.90;;;12.70;99.90;;;;;;5073996;28;20212;-59
2022/07/17 04:29:36;;;;;;;1999.90;999.90;;;12.70;99.90;;;;;;5074134;28;20203;-59
2022/07/17 04:32:05;;;;;;;1999.90;999.90;;;12.80;99.90;;;;;;5073855;28;20552;-59
2022/07/17 04:34:33;;;;;;;1999.90;999.90;;;12.80;99.90;;;;;;5073457;28;20276;-63
2022/07/17 04:37:01;;;;;;;1999.90;999.90;;;12.80;99.90;;;;;;5073715;28;20229;-59
2022/07/17 04:39:28;;;;;;;1999.90;999.90;;;12.80;99.90;;;;;;5073401;28;20558;-59
2022/07/17 04:41:55;;;;;;;1999.90;999.90;;;12.80;99.90;;;;;;5073693;28;20191;-59
2022/07/17 04:44:23;;;;;;;1999.90;999.90;;;12.80;99.90;;;;;;5073346;28;20566;-59
2022/07/17 04:46:50;;;;;;;1999.90;999.90;;;12.80;99.90;;;;;;5073231;28;20203;-62
2022/07/17 04:49:18;;;;;;;1999.90;999.90;;;12.90;99.90;;;;;;5073387;28;20198;-60
2022/07/17 04:51:45;;;;;;;1999.90;999.90;;;12.90;99.90;;;;;;5073334;28;20206;-60
2022/07/17 04:54:12;;;;;;;1999.90;999.90;;;13.00;99.90;;;;;;5073447;28;20195;-60
2022/07/17 04:56:39;;;;;;;1999.90;999.90;;;13.10;99.90;;;;;;5072919;28;20207;-60
2022/07/17 04:59:06;;;;;;;1999.90;999.90;;;13.10;99.90;;;;;;5073037;28;20225;-59
2022/07/17 05:01:34;;;;;;;1999.90;999.90;;;13.20;99.90;;;;;;5072888;28;20201;-59
2022/07/17 05:04:02;;;;;;;1999.90;999.90;;;13.30;99.90;;;;;;5073276;28;20199;-59
2022/07/17 05:06:31;;;;;;;1999.90;999.90;;;13.40;99.90;;;;;;5073147;28;20239;-59
2022/07/17 05:08:58;;;;;;;1999.90;999.90;;;13.40;99.90;;;;;;5073196;28;20205;-60
2022/07/17 05:11:25;;;;;;;1999.90;999.90;;;13.60;99.90;;;;;;5073120;28;20550;-60
2022/07/17 05:13:52;;;;;;;1999.90;999.90;;;13.60;99.90;;;;;;5072730;28;20551;-60
2022/07/17 05:16:19;;;;;;;1999.90;999.90;;;13.80;99.90;;;;;;5073008;28;20547;-60
2022/07/17 05:18:46;;;;;;;1999.90;999.90;;;13.90;99.90;;;;;;5072628;28;20567;-59
2022/07/17 05:21:14;;;;;;;1999.90;999.90;;;14.00;99.90;;;;;;5072497;28;20694;-60
2022/07/17 05:23:42;;;;;;;1999.90;999.90;;;14.20;99.90;;;;;;5072900;28;20260;-60
2022/07/17 05:26:09;;;;;;;1999.90;999.90;;;14.40;99.90;;;;;;5072703;28;20251;-60
2022/07/17 05:28:37;;;;;;;1999.90;999.90;;;14.70;99.90;;;;;;5072839;28;20203;-60
2022/07/17 05:31:04;;;;;;;1999.90;999.90;;;15.30;99.90;;;;;;5072535;28;20200;-60
2022/07/17 05:33:31;;;;;;;1999.90;999.90;;;15.80;99.90;;;;;;5072336;28;20206;-59
2022/07/17 05:35:58;;;;;;;1999.90;999.90;;;16.10;99.90;;;;;;5072284;28;20269;-60
2022/07/17 05:38:25;;;;;;;1999.90;999.90;;;16.40;99.90;;;;;;5072576;28;20210;-60
2022/07/17 05:40:53;;;;;;;1999.90;999.90;;;16.70;99.90;;;;;;5072648;28;20190;-60
2022/07/17 05:43:20;;;;;;;1999.90;999.90;;;16.90;99.90;;;;;;5072557;28;20213;-61
2022/07/17 05:45:48;;;;;;;1999.90;999.90;;;17.10;99.90;;;;;;5072242;28;20694;-61
2022/07/17 05:48:15;;;;;;;1999.90;999.90;;;17.20;99.90;;;;;;5072271;28;20195;-61
2022/07/17 05:50:42;;;;;;;1999.90;999.90;;;17.70;99.90;;;;;;5071974;28;20534;-61
2022/07/17 05:53:09;;;;;;;1999.90;999.90;;;17.70;99.90;;;;;;5072313;28;20200;-61
2022/07/17 05:55:36;;;;;;;1999.90;999.90;;;17.90;99.90;;;;;;5071918;28;20707;-62
2022/07/17 05:58:04;;;;;;;1999.90;999.90;;;18.10;99.90;;;;;;5072119;28;20684;-61
2022/07/17 06:00:32;;;;;;;1999.90;999.90;;;18.20;99.90;;;;;;5072055;28;20225;-61
2022/07/17 06:02:59;;;;;;;1999.90;999.90;;;18.60;99.90;;;;;;5072038;28;20664;-61
2022/07/17 06:05:26;;;;;;;1999.90;999.90;;;19.20;99.90;;;;;;5072400;28;20229;-61
2022/07/17 06:07:54;;;;;;;1999.90;999.90;;;19.20;99.90;;;;;;5072384;28;20195;-61
2022/07/17 06:10:21;;;;;;;1999.90;999.90;;;19.30;99.90;;;;;;5072344;28;20199;-62
2022/07/17 06:12:49;;;;;;;1999.90;999.90;;;19.50;99.90;;;;;;5072247;28;20195;-62
2022/07/17 06:15:17;;;;;;;1999.90;999.90;;;19.90;99.90;;;;;;5072582;28;20194;-61
2022/07/17 06:17:44;;;;;;;1999.90;999.90;;;20.40;99.90;;;;;;5072289;28;20209;-62
2022/07/17 06:20:12;;;;;;;1999.90;999.90;;;20.80;99.90;;;;;;5072278;28;20199;-63
2022/07/17 06:22:39;;;;;;;1999.90;999.90;;;20.60;99.90;;;;;;5072118;28;20194;-63
2022/07/17 06:25:07;;;;;;;1999.90;999.90;;;20.70;78.20;;;;;;5072035;28;20213;-62
2022/07/17 06:27:34;;;;;;;1999.90;999.90;;;20.90;76.50;;;;;;5072148;28;20239;-63
2022/07/17 06:30:02;;;;;;;1999.90;999.90;;;20.60;59.90;;;;;;5072193;28;20205;-62
2022/07/17 06:32:31;;;;;;;1999.90;999.90;;;20.90;46.10;;;;;;5072101;28;20203;-62
2022/07/17 06:34:58;;;;;;;1999.90;999.90;;;21.00;34.90;;;;;;5071931;28;20222;-62
2022/07/17 06:37:25;;;;;;;1999.90;999.90;;;20.60;23.60;;;;;;5071952;28;20219;-63
2022/07/17 06:39:52;;;;;;;1999.90;999.90;;;21.80;10.30;;;;;;5072302;28;20195;-63
2022/07/17 06:42:19;;;;;;;1999.90;999.90;;;21.70;1.90;;;;;;5071687;28;20725;-62
2022/07/17 06:44:46;;;;;;;1999.90;999.90;;;22.00;1.00;;;;;;5071995;28;20199;-62
2022/07/17 06:47:13;;;;;;;1999.90;999.90;;;22.40;1.00;;;;;;5075720;28;20195;-63
2022/07/17 06:49:41;;;;;;;1999.90;999.90;;;22.20;1.00;;;;;;5075372;28;20194;-63
2022/07/17 06:52:08;;;;;;;1999.90;999.90;;;22.00;1.00;;;;;;5075269;28;20209;-62
2022/07/17 06:54:35;;;;;;;1999.90;999.90;;;22.70;1.00;;;;;;5075517;28;20191;-62
2022/07/17 06:57:02;;;;;;;1999.90;999.90;;;22.30;1.00;;;;;;5075749;28;20207;-62
2022/07/17 06:59:30;;;;;;;1999.90;999.90;;;22.40;1.00;;;;;;5075285;28;20702;-63
2022/07/17 07:01:57;;;;;;;1999.90;999.90;;;23.10;1.00;;;;;;5075062;28;20221;-62
2022/07/17 07:04:24;;;;;;;1999.90;999.90;;;22.40;1.00;;;;;;5075657;28;20209;-61
2022/07/17 07:06:52;;;;;;;1999.90;999.90;;;22.80;1.00;;;;;;5075446;28;20194;-63
2022/07/17 07:09:19;;;;;;;1999.90;999.90;;;23.40;1.00;;;;;;5075011;28;20205;-61
2022/07/17 07:11:46;;;;;;;1999.90;999.90;;;23.90;1.00;;;;;;5075012;28;20203;-62
2022/07/17 07:14:13;;;;;;;1999.90;999.90;;;23.30;1.00;;;;;;5075228;28;20190;-61
2022/07/17 07:16:40;;;;;;;1999.90;999.90;;;23.10;1.00;;;;;;5074977;28;20672;-61
2022/07/17 07:19:07;;;;;;;1999.90;999.90;;;23.40;1.00;;;;;;5075263;28;20233;-61
2022/07/17 07:21:35;;;;;;;1999.90;999.90;;;23.90;1.00;;;;;;5075099;28;20199;-61
2022/07/17 07:24:03;;;;;;;1999.90;999.90;;;23.30;1.00;;;;;;5074852;28;20575;-61
2022/07/17 07:26:31;;;;;;;1999.90;999.90;;;23.60;1.00;;;;;;5074954;28;20203;-62
2022/07/17 07:28:58;;;;;;;1999.90;999.90;;;22.80;1.00;;;;;;5075227;28;20196;-61
2022/07/17 07:31:25;;;;;;;1999.90;999.90;;;23.70;1.00;;;;;;5074898;28;20195;-61
2022/07/17 07:33:52;;;;;;;1999.90;999.90;;;24.90;1.00;;;;;;5074657;28;20694;-61
2022/07/17 07:36:19;;;;;;;1999.90;999.90;;;25.60;1.00;;;;;;5074311;28;20227;-61
2022/07/17 07:38:46;;;;;;;1999.90;999.90;;;25.00;1.00;;;;;;5074551;28;20211;-61
2022/07/17 07:41:15;;;;;;;1999.90;999.90;;;25.00;1.00;;;;;;5074840;28;20195;-61
2022/07/17 07:43:42;;;;;;;1999.90;999.90;;;25.50;1.00;;;;;;5074782;28;20198;-61
2022/07/17 07:46:09;;;;;;;1999.90;999.90;;;26.10;1.00;;;;;;5074451;28;20677;-61
2022/07/17 07:48:36;;;;;;;1999.90;999.90;;;26.40;1.00;;;;;;5074291;28;20612;-62
2022/07/17 07:51:03;;;;;;;1999.90;999.90;;;26.20;1.00;;;;;;5074553;28;20195;-62
2022/07/17 07:53:30;;;;;;;1999.90;999.90;;;26.00;1.00;;;;;;5074600;28;20206;-62
2022/07/17 07:55:57;;;;;;;1999.90;999.90;;;26.60;1.00;;;;;;5074175;28;20220;-62
2022/07/17 07:58:26;;;;;;;1999.90;999.90;;;26.70;1.00;;;;;;5073518;28;20596;-62
2022/07/17 08:00:53;;;;;;;1999.90;999.90;;;27.70;1.00;;;;;;5074471;28;20190;-61
2022/07/17 08:03:20;;;;;;;1999.90;999.90;;;27.20;1.00;;;;;;5074063;28;20256;-61
2022/07/17 08:05:47;;;;;;;1999.90;999.90;;;27.40;1.00;;;;;;5074035;28;20702;-61
2022/07/17 08:08:14;;;;;;;1999.90;999.90;;;27.20;1.00;;;;;;5074619;28;20205;-61
2022/07/17 08:10:41;;;;;;;1999.90;999.90;;;27.70;1.00;;;;;;5074361;28;20195;-62
2022/07/17 08:13:09;;;;;;;1999.90;999.90;;;27.90;1.00;;;;;;5074164;28;20195;-61
2022/07/17 08:15:38;;;;;;;1999.90;999.90;;;27.50;1.00;;;;;;5074153;28;20199;-61
2022/07/17 08:18:06;;;;;;;1999.90;999.90;;;28.20;1.00;;;;;;5074096;28;20223;-62
2022/07/17 08:20:33;;;;;;;1999.90;999.90;;;28.60;1.00;;;;;;5073736;28;20197;-61
2022/07/17 08:23:00;;;;;;;1999.90;999.90;;;28.80;1.00;;;;;;5073940;28;20187;-61
2022/07/17 08:25:27;;;;;;;1999.90;999.90;;;28.50;1.00;;;;;;5073492;28;20203;-61
2022/07/17 08:27:54;;;;;;;1999.90;999.90;;;28.70;1.00;;;;;;5073967;28;20201;-62
2022/07/17 08:30:21;;;;;;;1999.90;999.90;;;28.20;1.00;;;;;;5073846;28;20195;-61
2022/07/17 08:32:50;;;;;;;1999.90;999.90;;;29.00;1.00;;;;;;5073493;28;20207;-61
2022/07/17 08:35:17;;;;;;;1999.90;999.90;;;28.40;1.00;;;;;;5073509;28;20234;-62
2022/07/17 08:37:46;;;;;;;1999.90;999.90;;;28.70;1.00;;;;;;5073277;28;20613;-63
2022/07/17 08:40:17;;;;;;;1999.90;999.90;;;28.90;1.00;;;;;;5073730;28;20205;-62
2022/07/17 08:42:44;;;;;;;1999.90;999.90;;;28.70;1.00;;;;;;5073586;28;20225;-62
2022/07/17 08:45:12;;;;;;;1999.90;999.90;;;28.50;1.00;;;;;;5073534;28;20198;-62
2022/07/17 08:47:40;;;;;;;1999.90;999.90;;;27.90;1.00;;;;;;5073516;28;20203;-62
2022/07/17 08:50:10;;;;;;;1999.90;999.90;;;27.20;1.00;;;;;;5073086;28;20224;-61
2022/07/17 08:52:38;;;;;;;1999.90;999.90;;;26.60;1.00;;;;;;5073334;28;20537;-61
2022/07/17 08:55:09;;;;;;;1999.90;999.90;;;28.00;1.00;;;;;;5073129;28;20231;-62
2022/07/17 08:57:39;;;;;;;1999.90;999.90;;;28.90;1.00;;;;;;5073320;28;20183;-61
2022/07/17 09:00:10;;;;;;;1999.90;999.90;;;28.60;1.00;;;;;;5073534;28;20184;-61
2022/07/17 09:02:37;;;;;;;1999.90;999.90;;;28.70;1.00;;;;;;5073244;28;20198;-61
2022/07/17 09:05:06;;;;;;;1999.90;999.90;;;28.40;1.00;;;;;;5072998;28;20568;-61
2022/07/17 09:07:46;;;;;;;1999.90;999.90;;;27.90;1.00;;;;;;5072860;28;20606;-61
2022/07/17 09:10:13;;;;;;;1999.90;999.90;;;26.70;1.00;;;;;;5072742;28;20186;-61
2022/07/17 09:12:40;;;;;;;1999.90;999.90;;;26.20;1.00;;;;;;5072957;28;20203;-61
2022/07/17 09:15:16;;;;;;;1999.90;999.90;;;27.50;1.00;;;;;;5072966;28;20206;-62
2022/07/17 09:17:49;;;;;;;1999.90;999.90;;;28.90;1.00;;;;;;5072597;28;20183;-61
2022/07/17 09:20:16;;;;;;;1999.90;999.90;;;29.10;1.00;;;;;;5072970;28;20181;-61
2022/07/17 09:22:45;;;;;;;1999.90;999.90;;;29.80;1.00;;;;;;5072762;28;20205;-61
2022/07/17 09:25:13;;;;;;;1999.90;999.90;;;29.50;1.00;;;;;;5072458;28;20672;-61
2022/07/17 09:27:40;;;;;;;1999.90;999.90;;;28.90;1.00;;;;;;5072787;28;20194;-61
2022/07/17 09:30:11;;;;;;;1999.90;999.90;;;28.90;1.00;;;;;;5072833;28;20194;-61
2022/07/17 09:32:39;;;;;;;1999.90;999.90;;;27.30;1.00;;;;;;5072951;28;20386;-61
2022/07/17 09:35:09;;;;;;;1999.90;999.90;;;27.60;1.00;;;;;;5072219;28;20233;-61
2022/07/17 09:37:38;;;;;;;1999.90;999.90;;;28.50;1.00;;;;;;5072374;28;20187;-61
2022/07/17 09:41:09;;;;;;;1999.90;999.90;;;29.00;1.00;;;;;;5072567;28;20222;-61
2022/07/17 09:42:59;;;;;;;1999.90;999.90;;;29.40;1.00;;;;;;5072146;28;20217;-62
2022/07/17 09:45:26;;;;;;;1999.90;999.90;;;30.10;1.00;;;;;;5072566;28;20195;-61
2022/07/17 09:47:54;;;;;;;1999.90;999.90;;;30.50;1.00;;;;;;5072281;28;20546;-62
2022/07/17 09:50:22;;;;;;;1999.90;999.90;;;30.20;1.00;;;;;;5072268;28;20199;-61
2022/07/17 09:52:55;;;;;;;1999.90;999.90;;;30.30;1.00;;;;;;5072490;28;20190;-61
2022/07/17 09:55:28;;;;;;;1999.90;999.90;;;29.90;1.00;;;;;;5072419;28;20186;-62
2022/07/17 09:57:56;;;;;;;1999.90;999.90;;;29.10;1.00;;;;;;5072468;28;20193;-61
2022/07/17 10:00:24;;;;;;;1999.90;999.90;;;28.80;1.00;;;;;;5072424;28;20203;-61
2022/07/17 10:02:52;;;;;;;1999.90;999.90;;;29.20;1.00;;;;;;5072615;28;20195;-60
2022/07/17 10:05:19;;;;;;;1999.90;999.90;;;28.80;1.00;;;;;;5072096;28;20191;-60
2022/07/17 10:07:48;;;;;;;1999.90;999.90;;;29.00;1.00;;;;;;5072447;28;20205;-61
2022/07/17 10:10:17;;;;;;;1999.90;999.90;;;29.50;1.00;;;;;;5072400;28;20193;-61
2022/07/17 10:12:48;;;;;;;1999.90;999.90;;;29.90;1.00;;;;;;5072306;28;20213;-61
2022/07/17 10:15:17;;;;;;;1999.90;999.90;;;30.30;1.00;;;;;;5072157;28;20183;-61
2022/07/17 10:17:44;;;;;;;1999.90;999.90;;;30.80;1.00;;;;;;5072250;28;20198;-61
2022/07/17 10:20:13;;;;;;;1999.90;999.90;;;30.80;1.00;;;;;;5072508;28;20210;-61
2022/07/17 10:22:45;;;;;;;1999.90;999.90;;;30.10;1.00;;;;;;5075925;28;20203;-61
2022/07/17 10:25:16;;;;;;;1999.90;999.90;;;29.90;1.00;;;;;;5076200;28;20263;-61
2022/07/17 10:27:50;;;;;;;1999.90;999.90;;;28.20;1.00;;;;;;5076451;28;20209;-61
2022/07/17 10:30:24;;;;;;;1999.90;999.90;;;28.60;1.00;;;;;;5076296;28;20182;-61
2022/07/17 10:32:56;;;;;;;1999.90;999.90;;;29.80;1.00;;;;;;5076302;28;20175;-63
2022/07/17 10:35:23;;;;;;;1999.90;999.90;;;30.60;1.00;;;;;;5075845;28;20237;-61
2022/07/17 10:37:51;;;;;;;1999.90;999.90;;;30.40;1.00;;;;;;5075772;28;20198;-62
2022/07/17 10:40:21;;;;;;;1999.90;999.90;;;30.50;1.00;;;;;;5075425;28;20222;-61
2022/07/17 10:43:00;;;;;;;1999.90;999.90;;;30.20;1.00;;;;;;5075525;28;20198;-61
2022/07/17 10:45:33;;;;;;;1999.90;999.90;;;30.80;1.00;;;;;;5075547;28;20244;-62
2022/07/17 10:48:03;;;;;;;1999.90;999.90;;;31.00;1.00;;;;;;5075466;28;20641;-61
2022/07/17 10:50:35;;;;;;;1999.90;999.90;;;30.90;1.00;;;;;;5075750;28;20202;-62
2022/07/17 10:53:15;;;;;;;1999.90;999.90;;;31.00;1.00;;;;;;5075377;28;20254;-62
2022/07/17 10:55:44;;;;;;;1999.90;999.90;;;30.50;1.00;;;;;;5075312;28;20187;-62
2022/07/17 10:58:21;;;;;;;1999.90;999.90;;;30.70;1.00;;;;;;5075676;28;20198;-61
2022/07/17 11:00:59;;;;;;;1999.90;999.90;;;30.30;1.00;;;;;;5075566;28;20187;-62
2022/07/17 11:03:27;;;;;;;1999.90;999.90;;;29.80;1.00;;;;;;5075605;28;20190;-61
2022/07/17 11:05:54;;;;;;;1999.90;999.90;;;29.20;1.00;;;;;;5075556;28;20205;-61
2022/07/17 11:08:22;;;;;;;1999.90;999.90;;;28.90;1.00;;;;;;5075487;28;20251;-61
2022/07/17 11:10:49;;;;;;;1999.90;999.90;;;28.50;1.00;;;;;;5075030;28;20251;-62
2022/07/17 11:13:18;;;;;;;1999.90;999.90;;;28.60;1.00;;;;;;5075101;28;20203;-61
2022/07/17 11:15:47;;;;;;;1999.90;999.90;;;29.40;1.00;;;;;;5074363;28;20202;-61
2022/07/17 11:18:17;;;;;;;1999.90;999.90;;;30.00;1.00;;;;;;5074573;28;20672;-61
2022/07/17 11:20:49;;;;;;;1999.90;999.90;;;30.50;1.00;;;;;;5074665;28;20202;-60
2022/07/17 11:23:16;;;;;;;1999.90;999.90;;;30.70;1.00;;;;;;5075002;28;20203;-61
2022/07/17 11:25:56;;;;;;;1999.90;999.90;;;30.90;1.00;;;;;;5074013;28;20199;-61
2022/07/17 11:28:36;;;;;;;1999.90;999.90;;;29.80;1.00;;;;;;5074519;28;20209;-61
2022/07/17 11:31:16;;;;;;;1999.90;999.90;;;29.70;1.00;;;;;;5075097;28;20187;-61
2022/07/17 11:33:48;;;;;;;1999.90;999.90;;;30.80;1.00;;;;;;5073309;28;20183;-61
2022/07/17 11:36:25;;;;;;;1999.90;999.90;;;31.40;1.00;;;;;;5072960;28;20227;-63
2022/07/17 11:38:53;;;;;;;1999.90;999.90;;;31.50;1.00;;;;;;5074375;28;20202;-62
2022/07/17 11:41:21;;;;;;;1999.90;999.90;;;31.50;1.00;;;;;;5073826;28;20199;-62
2022/07/17 11:43:49;;;;;;;1999.90;999.90;;;30.30;1.00;;;;;;5074014;28;20195;-62
2022/07/17 11:46:17;;;;;;;1999.90;999.90;;;30.40;1.00;;;;;;5074138;28;20214;-62
2022/07/17 11:48:45;;;;;;;1999.90;999.90;;;31.10;1.00;;;;;;5074117;28;20206;-62
2022/07/17 11:51:12;;;;;;;1999.90;999.90;;;31.70;1.00;;;;;;5073035;28;20567;-62
2022/07/17 11:53:41;;;;;;;1999.90;999.90;;;31.80;1.00;;;;;;5073913;28;20199;-62
2022/07/17 11:56:09;;;;;;;1999.90;999.90;;;32.00;1.00;;;;;;5073955;28;20586;-63
2022/07/17 11:58:44;;;;;;;1999.90;999.90;;;32.00;1.00;;;;;;5073730;28;20191;-62
2022/07/17 12:01:13;;;;;;;1999.90;999.90;;;32.20;1.00;;;;;;5074285;28;20198;-62
2022/07/17 12:03:40;;;;;;;1999.90;999.90;;;32.00;1.00;;;;;;5074497;28;20198;-63
2022/07/17 12:06:07;;;;;;;1999.90;999.90;;;31.50;1.00;;;;;;5073494;28;20231;-62
2022/07/17 12:08:35;;;;;;;1999.90;999.90;;;30.80;1.00;;;;;;5073989;28;20664;-62